createdAt,value
2018-10-09T00:09:24.309Z,0.00
2018-10-09T00:17:13.591Z,0.00
2018-10-09T01:23:20.467Z,0.00
2018-10-09T02:34:23.436Z,0.00
2018-10-09T02:40:00.162Z,0.00
2018-10-09T02:48:07.217Z,0.00
2018-10-09T03:34:28.034Z,0.00
2018-10-09T03:40:05.445Z,0.00
2018-10-09T03:56:50.503Z,0.00
2018-10-09T03:57:50.286Z,0.00
2018-10-09T03:59:06.900Z,0.00
2018-10-09T04:01:05.726Z,0.00
2018-10-09T04:02:05.735Z,0.00
2018-10-09T04:03:05.711Z,0.00
2018-10-09T04:04:05.701Z,0.00
2018-10-09T04:05:05.690Z,0.00
2018-10-09T04:06:05.681Z,0.00
2018-10-09T04:07:05.679Z,0.00
2018-10-09T04:08:05.656Z,0.00
2018-10-09T04:09:05.686Z,0.00
2018-10-09T04:10:05.633Z,0.00
2018-10-09T04:11:05.621Z,0.00
2018-10-09T04:12:05.622Z,0.00
2018-10-09T04:13:05.603Z,0.00
2018-10-09T04:14:05.592Z,0.00
2018-10-09T04:15:05.579Z,0.00
2018-10-09T04:16:05.564Z,0.00
2018-10-09T04:17:05.568Z,0.00
2018-10-09T04:18:05.542Z,0.00
2018-10-09T04:19:05.530Z,0.00
2018-10-09T04:20:05.511Z,0.00
2018-10-09T04:21:05.529Z,0.00
2018-10-09T04:22:05.508Z,0.00
2018-10-09T04:23:05.485Z,0.00
2018-10-09T04:24:05.474Z,0.00
2018-10-09T04:25:05.463Z,0.00
2018-10-09T04:26:05.451Z,0.00
2018-10-09T04:27:05.451Z,0.00
2018-10-09T04:28:05.432Z,0.00
2018-10-09T04:29:05.420Z,0.00
2018-10-09T04:30:05.409Z,0.00
2018-10-09T04:31:05.399Z,0.00
2018-10-09T04:32:05.399Z,0.00
2018-10-09T04:33:05.378Z,0.00
2018-10-09T04:34:05.365Z,0.00
2018-10-09T04:35:05.353Z,0.00
2018-10-09T04:36:05.341Z,0.00
2018-10-09T04:37:05.343Z,0.00
2018-10-09T04:38:05.319Z,0.00
2018-10-09T04:39:05.309Z,0.00
2018-10-09T04:40:05.297Z,0.00
2018-10-09T04:41:05.285Z,0.00
2018-10-09T04:42:05.293Z,0.00
2018-10-09T04:43:05.272Z,0.00
2018-10-09T04:44:05.251Z,0.00
2018-10-09T04:45:05.239Z,0.00
2018-10-09T04:46:05.230Z,0.00
2018-10-09T04:47:05.229Z,0.00
2018-10-09T04:48:05.209Z,0.00
2018-10-09T04:49:05.198Z,0.00
2018-10-09T04:50:05.187Z,0.00
2018-10-09T04:51:05.175Z,0.00
2018-10-09T04:52:05.172Z,0.00
2018-10-09T04:53:05.219Z,0.00
2018-10-09T04:54:05.142Z,0.00
2018-10-09T04:55:05.131Z,0.00
2018-10-09T04:56:05.118Z,0.00
2018-10-09T04:57:05.120Z,0.00
2018-10-09T04:58:05.099Z,0.00
2018-10-09T04:59:05.084Z,0.00
2018-10-09T05:00:05.078Z,0.00
2018-10-09T05:01:05.066Z,0.00
2018-10-09T05:02:05.065Z,0.00
2018-10-09T05:03:05.045Z,0.00
2018-10-09T05:04:05.032Z,0.00
2018-10-09T05:05:05.021Z,0.00
2018-10-09T05:06:05.010Z,0.00
2018-10-09T05:07:05.012Z,4.00
2018-10-09T05:08:04.987Z,0.00
2018-10-09T05:09:04.977Z,4.00
2018-10-09T05:10:04.965Z,8.00
2018-10-09T05:11:04.953Z,8.00
2018-10-09T05:12:04.957Z,8.00
2018-10-09T05:13:04.930Z,12.00
2018-10-09T05:14:04.923Z,16.00
2018-10-09T05:15:04.913Z,16.00
2018-10-09T05:16:04.900Z,16.00
2018-10-09T05:17:04.897Z,12.00
2018-10-09T05:18:04.878Z,20.00
2018-10-09T05:19:04.866Z,16.00
2018-10-09T05:20:04.855Z,20.00
2018-10-09T05:21:04.843Z,24.00
2018-10-09T05:22:04.844Z,28.00
2018-10-09T05:23:04.825Z,32.00
2018-10-09T05:24:04.810Z,28.00
2018-10-09T05:25:04.798Z,40.00
2018-10-09T05:26:04.787Z,40.00
2018-10-09T05:27:04.787Z,44.00
2018-10-09T05:28:04.771Z,48.00
2018-10-09T05:29:04.758Z,56.00
2018-10-09T05:30:04.745Z,56.00
2018-10-09T05:31:04.807Z,64.00
2018-10-09T05:32:04.731Z,64.00
2018-10-09T05:33:04.715Z,76.00
2018-10-09T05:34:04.702Z,84.00
2018-10-09T05:35:04.691Z,96.00
2018-10-09T05:36:04.678Z,104.00
2018-10-09T05:37:04.678Z,112.00
2018-10-09T05:38:04.659Z,120.00
2018-10-09T05:39:04.643Z,128.00
2018-10-09T05:40:04.632Z,144.00
2018-10-09T05:41:04.626Z,156.00
2018-10-09T05:42:04.634Z,168.00
2018-10-09T05:43:04.602Z,180.00
2018-10-09T05:44:04.644Z,200.00
2018-10-09T05:45:04.579Z,212.00
2018-10-09T05:46:04.572Z,240.00
2018-10-09T05:47:04.557Z,256.00
2018-10-09T05:48:04.558Z,268.00
2018-10-09T05:49:04.535Z,288.00
2018-10-09T05:50:04.523Z,316.00
2018-10-09T05:51:04.511Z,340.00
2018-10-09T05:52:04.507Z,352.00
2018-10-09T05:53:04.500Z,368.00
2018-10-09T05:54:04.481Z,384.00
2018-10-09T05:55:04.475Z,416.00
2018-10-09T05:56:04.459Z,436.00
2018-10-09T05:57:04.448Z,460.00
2018-10-09T05:58:04.460Z,480.00
2018-10-09T05:59:04.425Z,504.00
2018-10-09T06:00:04.414Z,512.00
2018-10-09T06:01:04.402Z,528.00
2018-10-09T06:02:04.391Z,548.00
2018-10-09T06:03:04.392Z,560.00
2018-10-09T06:04:04.369Z,588.00
2018-10-09T06:05:04.361Z,620.00
2018-10-09T06:06:04.449Z,636.00
2018-10-09T06:07:04.339Z,644.00
2018-10-09T06:08:04.336Z,664.00
2018-10-09T06:09:04.319Z,660.00
2018-10-09T06:10:04.309Z,688.00
2018-10-09T06:11:04.293Z,720.00
2018-10-09T06:12:04.282Z,732.00
2018-10-09T06:13:04.282Z,728.00
2018-10-09T06:14:04.263Z,728.00
2018-10-09T06:15:04.248Z,744.00
2018-10-09T06:16:04.305Z,800.00
2018-10-09T06:17:04.225Z,816.00
2018-10-09T06:18:04.226Z,828.00
2018-10-09T06:19:04.210Z,844.00
2018-10-09T06:20:04.196Z,844.00
2018-10-09T06:21:04.184Z,852.00
2018-10-09T06:22:04.182Z,864.00
2018-10-09T06:23:04.173Z,908.00
2018-10-09T06:24:04.149Z,952.00
2018-10-09T06:25:04.141Z,1000.00
2018-10-09T06:26:04.127Z,1056.00
2018-10-09T06:27:04.115Z,1108.00
2018-10-09T06:28:04.219Z,1128.00
2018-10-09T06:29:04.093Z,1168.00
2018-10-09T06:30:04.082Z,1184.00
2018-10-09T06:31:04.085Z,1196.00
2018-10-09T06:32:04.063Z,1168.00
2018-10-09T06:33:04.064Z,1128.00
2018-10-09T06:34:04.052Z,1108.00
2018-10-09T06:35:04.030Z,1120.00
2018-10-09T06:36:04.018Z,1084.00
2018-10-09T06:37:04.024Z,1060.00
2018-10-09T06:38:04.007Z,1072.00
2018-10-09T06:39:03.983Z,1076.00
2018-10-09T06:40:03.977Z,1092.00
2018-10-09T06:41:03.961Z,1124.00
2018-10-09T06:42:03.951Z,1148.00
2018-10-09T06:43:03.950Z,1208.00
2018-10-09T06:44:03.927Z,1268.00
2018-10-09T06:45:03.920Z,1316.00
2018-10-09T06:46:03.908Z,1356.00
2018-10-09T06:47:03.898Z,1388.00
2018-10-09T06:48:03.897Z,1512.00
2018-10-09T06:49:03.878Z,1556.00
2018-10-09T06:50:03.851Z,1508.00
2018-10-09T06:51:03.855Z,1460.00
2018-10-09T06:52:03.840Z,1484.00
2018-10-09T06:53:03.849Z,1468.00
2018-10-09T06:54:03.893Z,1464.00
2018-10-09T06:55:03.806Z,1492.00
2018-10-09T06:56:03.795Z,1516.00
2018-10-09T06:57:03.783Z,1472.00
2018-10-09T06:58:03.770Z,1424.00
2018-10-09T06:59:03.761Z,1392.00
2018-10-09T07:00:03.755Z,1408.00
2018-10-09T07:01:03.743Z,1444.00
2018-10-09T07:02:03.727Z,1472.00
2018-10-09T07:03:03.728Z,1496.00
2018-10-09T07:04:03.709Z,1520.00
2018-10-09T07:05:03.690Z,1564.00
2018-10-09T07:06:03.687Z,1636.00
2018-10-09T07:07:03.675Z,1732.00
2018-10-09T07:08:03.763Z,1736.00
2018-10-09T07:09:03.653Z,1716.00
2018-10-09T07:10:03.643Z,1716.00
2018-10-09T07:11:03.665Z,1756.00
2018-10-09T07:12:03.618Z,1812.00
2018-10-09T07:13:03.619Z,1864.00
2018-10-09T07:14:03.596Z,1976.00
2018-10-09T07:15:03.573Z,2176.00
2018-10-09T07:16:03.675Z,2444.00
2018-10-09T07:17:03.694Z,2728.00
2018-10-09T07:18:03.562Z,2656.00
2018-10-09T07:19:03.539Z,2668.00
2018-10-09T07:20:03.519Z,2700.00
2018-10-09T07:21:03.517Z,2684.00
2018-10-09T07:22:03.514Z,2592.00
2018-10-09T07:23:03.507Z,2608.00
2018-10-09T07:24:03.481Z,2556.00
2018-10-09T07:25:03.479Z,2528.00
2018-10-09T07:26:03.465Z,2552.00
2018-10-09T07:27:03.452Z,2632.00
2018-10-09T07:28:03.573Z,2716.00
2018-10-09T07:29:03.433Z,2720.00
2018-10-09T07:30:03.420Z,2748.00
2018-10-09T07:31:03.410Z,2828.00
2018-10-09T07:32:03.396Z,2940.00
2018-10-09T07:33:03.397Z,2936.00
2018-10-09T07:34:03.372Z,2940.00
2018-10-09T07:35:03.362Z,2904.00
2018-10-09T07:36:03.351Z,2832.00
2018-10-09T07:37:03.339Z,2764.00
2018-10-09T07:38:03.340Z,2792.00
2018-10-09T07:39:03.316Z,2868.00
2018-10-09T07:40:03.311Z,2900.00
2018-10-09T07:41:03.297Z,2948.00
2018-10-09T07:42:03.289Z,3028.00
2018-10-09T07:43:03.291Z,2912.00
2018-10-09T07:44:03.371Z,2824.00
2018-10-09T07:45:03.256Z,2844.00
2018-10-09T07:46:03.241Z,2976.00
2018-10-09T07:47:03.230Z,3104.00
2018-10-09T07:48:03.250Z,3216.00
2018-10-09T07:49:03.213Z,3336.00
2018-10-09T07:50:03.200Z,3384.00
2018-10-09T07:51:03.188Z,3456.00
2018-10-09T07:52:03.174Z,3504.00
2018-10-09T07:53:03.166Z,3472.00
2018-10-09T07:54:03.163Z,3484.00
2018-10-09T07:55:03.151Z,3504.00
2018-10-09T07:56:03.131Z,3532.00
2018-10-09T07:57:03.133Z,3476.00
2018-10-09T07:58:03.114Z,3432.00
2018-10-09T07:59:03.115Z,3416.00
2018-10-09T08:00:03.087Z,3312.00
2018-10-09T08:01:03.076Z,3100.00
2018-10-09T08:02:03.090Z,3160.00
2018-10-09T08:03:03.053Z,3084.00
2018-10-09T08:04:03.055Z,3032.00
2018-10-09T08:05:03.034Z,2932.00
2018-10-09T08:06:03.019Z,2912.00
2018-10-09T08:07:03.010Z,2896.00
2018-10-09T08:08:03.000Z,2788.00
2018-10-09T08:09:03.005Z,2716.00
2018-10-09T08:10:02.986Z,2660.00
2018-10-09T08:11:02.966Z,2704.00
2018-10-09T08:12:02.943Z,2700.00
2018-10-09T08:13:02.943Z,2740.00
2018-10-09T08:14:02.944Z,2800.00
2018-10-09T08:15:02.925Z,2844.00
2018-10-09T08:16:02.910Z,2900.00
2018-10-09T08:17:04.549Z,2956.00
2018-10-09T08:18:03.957Z,3092.00
2018-10-09T08:19:02.889Z,3244.00
2018-10-09T08:20:02.853Z,3524.00
2018-10-09T08:21:02.853Z,3744.00
2018-10-09T08:22:02.849Z,3764.00
2018-10-09T08:23:02.849Z,3608.00
2018-10-09T08:24:02.841Z,4020.00
2018-10-09T08:25:02.812Z,4464.00
2018-10-09T08:26:02.797Z,4696.00
2018-10-09T08:27:02.789Z,4692.00
2018-10-09T08:28:02.785Z,4724.00
2018-10-09T08:29:02.774Z,4952.00
2018-10-09T08:30:02.753Z,5432.00
2018-10-09T08:31:02.727Z,6180.00
2018-10-09T08:32:02.771Z,6536.00
2018-10-09T08:33:02.721Z,7060.00
2018-10-09T08:34:02.722Z,7988.00
2018-10-09T08:35:02.698Z,11408.00
2018-10-09T08:36:02.687Z,14752.00
2018-10-09T08:37:02.676Z,14880.00
2018-10-09T08:38:02.664Z,11408.00
2018-10-09T08:39:02.661Z,8952.00
2018-10-09T08:40:02.666Z,7936.00
2018-10-09T08:41:02.626Z,7428.00
2018-10-09T08:42:02.616Z,7256.00
2018-10-09T08:43:02.604Z,6944.00
2018-10-09T08:44:02.605Z,6548.00
2018-10-09T08:45:02.855Z,6332.00
2018-10-09T08:46:02.770Z,5980.00
2018-10-09T08:47:02.597Z,5804.00
2018-10-09T08:48:03.365Z,5548.00
2018-10-09T08:49:02.879Z,5356.00
2018-10-09T08:50:02.533Z,5240.00
2018-10-09T08:51:02.582Z,5004.00
2018-10-09T08:52:02.616Z,4892.00
2018-10-09T08:53:02.495Z,4784.00
2018-10-09T08:54:02.489Z,4812.00
2018-10-09T08:55:02.472Z,5016.00
2018-10-09T08:56:02.461Z,5404.00
2018-10-09T08:57:02.446Z,5728.00
2018-10-09T08:58:02.435Z,5248.00
2018-10-09T08:59:02.495Z,4996.00
2018-10-09T09:00:02.408Z,4796.00
2018-10-09T09:01:02.400Z,4892.00
2018-10-09T09:02:02.395Z,4500.00
2018-10-09T09:03:02.366Z,4144.00
2018-10-09T09:04:02.379Z,3876.00
2018-10-09T09:05:02.356Z,3656.00
2018-10-09T09:06:02.349Z,3552.00
2018-10-09T09:07:02.343Z,3528.00
2018-10-09T09:08:02.325Z,3516.00
2018-10-09T09:09:02.322Z,3512.00
2018-10-09T09:10:02.292Z,3512.00
2018-10-09T09:11:02.289Z,3560.00
2018-10-09T09:12:02.277Z,3652.00
2018-10-09T09:13:02.262Z,3628.00
2018-10-09T09:14:02.295Z,3796.00
2018-10-09T09:15:02.240Z,4152.00
2018-10-09T09:16:02.227Z,4192.00
2018-10-09T09:17:02.216Z,3952.00
2018-10-09T09:18:02.206Z,3632.00
2018-10-09T09:19:02.206Z,3476.00
2018-10-09T09:20:02.189Z,3428.00
2018-10-09T09:21:02.185Z,3408.00
2018-10-09T09:22:02.161Z,3380.00
2018-10-09T09:23:02.151Z,3348.00
2018-10-09T09:24:02.151Z,3288.00
2018-10-09T09:25:02.130Z,3252.00
2018-10-09T09:26:02.120Z,3236.00
2018-10-09T09:27:02.177Z,3244.00
2018-10-09T09:28:02.089Z,3256.00
2018-10-09T09:29:02.091Z,3260.00
2018-10-09T09:30:02.065Z,3252.00
2018-10-09T09:31:02.055Z,3232.00
2018-10-09T09:32:02.047Z,3236.00
2018-10-09T09:33:02.093Z,3232.00
2018-10-09T09:34:02.037Z,3224.00
2018-10-09T09:35:02.013Z,3240.00
2018-10-09T09:36:01.998Z,3240.00
2018-10-09T09:37:01.986Z,3256.00
2018-10-09T09:38:01.982Z,3252.00
2018-10-09T09:39:02.008Z,3252.00
2018-10-09T09:40:01.949Z,3240.00
2018-10-09T09:41:02.062Z,3224.00
2018-10-09T09:42:01.929Z,3192.00
2018-10-09T09:43:01.914Z,3180.00
2018-10-09T09:44:01.916Z,3140.00
2018-10-09T09:45:01.892Z,3084.00
2018-10-09T09:46:01.910Z,2988.00
2018-10-09T09:47:01.869Z,2912.00
2018-10-09T09:48:01.858Z,2856.00
2018-10-09T09:49:01.858Z,2804.00
2018-10-09T09:50:01.838Z,2736.00
2018-10-09T09:51:01.824Z,2688.00
2018-10-09T09:52:01.827Z,2688.00
2018-10-09T09:53:01.790Z,2668.00
2018-10-09T09:54:01.789Z,2660.00
2018-10-09T09:55:01.787Z,2684.00
2018-10-09T09:56:01.768Z,2664.00
2018-10-09T09:57:01.751Z,2656.00
2018-10-09T09:58:01.843Z,2632.00
2018-10-09T09:59:01.827Z,2620.00
2018-10-09T10:00:01.724Z,2632.00
2018-10-09T10:01:01.709Z,2624.00
2018-10-09T10:02:01.699Z,2616.00
2018-10-09T10:03:01.675Z,2600.00
2018-10-09T10:04:01.674Z,2636.00
2018-10-09T10:05:01.674Z,2696.00
2018-10-09T10:06:01.650Z,2768.00
2018-10-09T10:07:01.643Z,2796.00
2018-10-09T10:08:01.627Z,2800.00
2018-10-09T10:09:01.621Z,2800.00
2018-10-09T10:10:01.617Z,2816.00
2018-10-09T10:11:01.594Z,2808.00
2018-10-09T10:12:01.583Z,2768.00
2018-10-09T10:13:01.572Z,2732.00
2018-10-09T10:14:01.561Z,2632.00
2018-10-09T10:15:01.562Z,2572.00
2018-10-09T10:16:01.530Z,2544.00
2018-10-09T10:17:01.531Z,2492.00
2018-10-09T10:18:01.519Z,2448.00
2018-10-09T10:19:01.508Z,2384.00
2018-10-09T10:20:01.505Z,2296.00
2018-10-09T10:21:01.482Z,2228.00
2018-10-09T10:22:01.474Z,2192.00
2018-10-09T10:23:01.462Z,2140.00
2018-10-09T10:24:01.448Z,2100.00
2018-10-09T10:25:01.449Z,2064.00
2018-10-09T10:26:01.430Z,2012.00
2018-10-09T10:27:01.413Z,1980.00
2018-10-09T10:28:01.402Z,1964.00
2018-10-09T10:29:01.462Z,1956.00
2018-10-09T10:30:01.393Z,1964.00
2018-10-09T10:31:01.369Z,1984.00
2018-10-09T10:32:01.357Z,2004.00
2018-10-09T10:33:01.347Z,2012.00
2018-10-09T10:34:01.339Z,1980.00
2018-10-09T10:35:01.340Z,1928.00
2018-10-09T10:36:01.313Z,1880.00
2018-10-09T10:37:01.301Z,1840.00
2018-10-09T10:38:01.294Z,1836.00
2018-10-09T10:39:01.298Z,1956.00
2018-10-09T10:40:01.279Z,2096.00
2018-10-09T10:41:01.256Z,2180.00
2018-10-09T10:42:01.290Z,2208.00
2018-10-09T10:43:01.234Z,2196.00
2018-10-09T10:44:01.222Z,2156.00
2018-10-09T10:45:01.224Z,2100.00
2018-10-09T10:46:01.199Z,2148.00
2018-10-09T10:47:01.187Z,2180.00
2018-10-09T10:48:01.176Z,2176.00
2018-10-09T10:49:01.238Z,2204.00
2018-10-09T10:50:01.167Z,2232.00
2018-10-09T10:51:01.147Z,2280.00
2018-10-09T10:52:01.132Z,2340.00
2018-10-09T10:53:01.120Z,2388.00
2018-10-09T10:54:01.114Z,2452.00
2018-10-09T10:55:01.186Z,2568.00
2018-10-09T10:56:01.087Z,2712.00
2018-10-09T10:57:01.079Z,2820.00
2018-10-09T10:58:01.068Z,2832.00
2018-10-09T10:59:01.052Z,2760.00
2018-10-09T11:00:01.053Z,2676.00
2018-10-09T11:01:01.033Z,2596.00
2018-10-09T11:02:01.026Z,2560.00
2018-10-09T11:03:01.012Z,2524.00
2018-10-09T11:04:01.008Z,2496.00
2018-10-09T11:05:00.998Z,2496.00
2018-10-09T11:06:00.978Z,2500.00
2018-10-09T11:07:00.966Z,2452.00
2018-10-09T11:08:00.963Z,2356.00
2018-10-09T11:09:00.943Z,2260.00
2018-10-09T11:10:00.941Z,2172.00
2018-10-09T11:11:00.921Z,2072.00
2018-10-09T11:12:00.910Z,1848.00
2018-10-09T11:13:00.898Z,1748.00
2018-10-09T11:14:00.887Z,1580.00
2018-10-09T11:15:00.896Z,1480.00
2018-10-09T11:16:00.865Z,1460.00
2018-10-09T11:17:00.860Z,1428.00
2018-10-09T11:18:00.845Z,1408.00
2018-10-09T11:19:00.835Z,1384.00
2018-10-09T11:20:00.835Z,1352.00
2018-10-09T11:21:00.819Z,1332.00
2018-10-09T11:22:00.798Z,1344.00
2018-10-09T11:23:00.786Z,1360.00
2018-10-09T11:24:00.775Z,1356.00
2018-10-09T11:25:00.772Z,1360.00
2018-10-09T11:26:00.752Z,1380.00
2018-10-09T11:27:00.741Z,1432.00
2018-10-09T11:28:00.734Z,1456.00
2018-10-09T11:29:00.721Z,1452.00
2018-10-09T11:30:00.721Z,1444.00
2018-10-09T11:31:00.696Z,1452.00
2018-10-09T11:32:00.686Z,1460.00
2018-10-09T11:33:00.673Z,1464.00
2018-10-09T11:34:00.664Z,1476.00
2018-10-09T11:35:00.663Z,1460.00
2018-10-09T11:36:00.646Z,1460.00
2018-10-09T11:37:00.628Z,1436.00
2018-10-09T11:38:00.618Z,1424.00
2018-10-09T11:39:00.609Z,1424.00
2018-10-09T11:40:00.613Z,1412.00
2018-10-09T11:41:00.587Z,1396.00
2018-10-09T11:42:00.572Z,1388.00
2018-10-09T11:43:00.560Z,1376.00
2018-10-09T11:44:00.549Z,1364.00
2018-10-09T11:45:00.546Z,1336.00
2018-10-09T11:46:00.528Z,1312.00
2018-10-09T11:47:00.515Z,1284.00
2018-10-09T11:48:00.496Z,1256.00
2018-10-09T11:49:00.492Z,1240.00
2018-10-09T11:50:00.490Z,1224.00
2018-10-09T11:51:00.470Z,1208.00
2018-10-09T11:52:00.459Z,1200.00
2018-10-09T11:53:00.450Z,1188.00
2018-10-09T11:54:00.437Z,1180.00
2018-10-09T11:55:00.457Z,1160.00
2018-10-09T11:56:00.414Z,1152.00
2018-10-09T11:57:00.403Z,1152.00
2018-10-09T11:58:00.392Z,1140.00
2018-10-09T11:59:00.393Z,1132.00
2018-10-09T12:00:00.370Z,1136.00
2018-10-09T12:01:00.373Z,1128.00
2018-10-09T12:02:00.346Z,1136.00
2018-10-09T12:03:00.335Z,1136.00
2018-10-09T12:04:00.325Z,1136.00
2018-10-09T12:05:00.314Z,1132.00
2018-10-09T12:06:00.311Z,1120.00
2018-10-09T12:07:00.285Z,1104.00
2018-10-09T12:08:00.279Z,1092.00
2018-10-09T12:09:00.267Z,1092.00
2018-10-09T12:10:00.260Z,1104.00
2018-10-09T12:11:00.256Z,1104.00
2018-10-09T12:12:00.236Z,1084.00
2018-10-09T12:13:00.222Z,1072.00
2018-10-09T12:14:00.210Z,1056.00
2018-10-09T12:15:00.203Z,1048.00
2018-10-09T12:16:00.232Z,1064.00
2018-10-09T12:17:00.178Z,1076.00
2018-10-09T12:18:00.181Z,1060.00
2018-10-09T12:19:00.142Z,1052.00
2018-10-09T12:20:00.143Z,1036.00
2018-10-09T12:21:00.143Z,1032.00
2018-10-09T12:22:00.139Z,1028.00
2018-10-09T12:23:00.102Z,1028.00
2018-10-09T12:24:00.102Z,1036.00
2018-10-09T12:25:00.087Z,1036.00
2018-10-09T12:26:00.084Z,1044.00
2018-10-09T12:27:00.161Z,1040.00
2018-10-09T12:28:00.054Z,1028.00
2018-10-09T12:29:00.042Z,1032.00
2018-10-09T12:30:00.036Z,1024.00
2018-10-09T12:31:00.028Z,1024.00
2018-10-09T12:32:00.020Z,1024.00
2018-10-09T12:33:00.026Z,1024.00
2018-10-09T12:33:59.985Z,1024.00
2018-10-09T12:34:59.987Z,1024.00
2018-10-09T12:35:59.975Z,1016.00
2018-10-09T12:36:59.956Z,1016.00
2018-10-09T12:37:59.945Z,1012.00
2018-10-09T12:38:59.932Z,1004.00
2018-10-09T12:39:59.918Z,1004.00
2018-10-09T12:40:59.918Z,1000.00
2018-10-09T12:41:59.895Z,992.00
2018-10-09T12:42:59.872Z,988.00
2018-10-09T12:43:59.931Z,992.00
2018-10-09T12:44:59.858Z,984.00
2018-10-09T12:45:59.859Z,972.00
2018-10-09T12:46:59.835Z,972.00
2018-10-09T12:47:59.824Z,968.00
2018-10-09T12:48:59.861Z,956.00
2018-10-09T12:49:59.802Z,952.00
2018-10-09T12:50:59.802Z,948.00
2018-10-09T12:51:59.782Z,932.00
2018-10-09T12:52:59.831Z,936.00
2018-10-09T12:53:59.757Z,928.00
2018-10-09T12:54:59.748Z,928.00
2018-10-09T12:55:59.746Z,932.00
2018-10-09T12:56:59.768Z,940.00
2018-10-09T12:57:59.712Z,944.00
2018-10-09T12:58:59.717Z,944.00
2018-10-09T12:59:59.703Z,948.00
2018-10-09T13:00:59.697Z,944.00
2018-10-09T13:01:59.670Z,940.00
2018-10-09T13:02:59.658Z,948.00
2018-10-09T13:03:59.643Z,960.00
2018-10-09T13:04:59.632Z,968.00
2018-10-09T13:05:59.656Z,976.00
2018-10-09T13:06:59.610Z,980.00
2018-10-09T13:07:59.598Z,980.00
2018-10-09T13:08:59.588Z,968.00
2018-10-09T13:09:59.580Z,956.00
2018-10-09T13:10:59.577Z,956.00
2018-10-09T13:11:59.553Z,948.00
2018-10-09T13:12:59.542Z,932.00
2018-10-09T13:13:59.532Z,924.00
2018-10-09T13:14:59.523Z,912.00
2018-10-09T13:15:59.521Z,904.00
2018-10-09T13:16:59.498Z,900.00
2018-10-09T13:17:59.487Z,892.00
2018-10-09T13:18:59.473Z,896.00
2018-10-09T13:19:59.453Z,900.00
2018-10-09T13:20:59.492Z,904.00
2018-10-09T13:21:59.651Z,916.00
2018-10-09T13:22:59.610Z,920.00
2018-10-09T13:23:59.417Z,924.00
2018-10-09T13:24:59.408Z,928.00
2018-10-09T13:25:59.407Z,924.00
2018-10-09T13:26:59.435Z,916.00
2018-10-09T13:27:59.374Z,912.00
2018-10-09T13:28:59.361Z,912.00
2018-10-09T13:29:59.354Z,924.00
2018-10-09T13:30:59.455Z,924.00
2018-10-09T13:31:59.330Z,916.00
2018-10-09T13:32:59.311Z,908.00
2018-10-09T13:33:59.307Z,912.00
2018-10-09T13:34:59.285Z,920.00
2018-10-09T13:35:59.294Z,924.00
2018-10-09T13:36:59.271Z,928.00
2018-10-09T13:37:59.295Z,932.00
2018-10-09T13:38:59.248Z,956.00
2018-10-09T13:39:59.236Z,960.00
2018-10-09T13:40:59.269Z,968.00
2018-10-09T13:41:59.215Z,980.00
2018-10-09T13:42:59.187Z,984.00
2018-10-09T13:43:59.215Z,992.00
2018-10-09T13:44:59.183Z,996.00
2018-10-09T13:45:59.190Z,1004.00
2018-10-09T13:46:59.162Z,1004.00
2018-10-09T13:47:59.147Z,1000.00
2018-10-09T13:48:59.140Z,1004.00
2018-10-09T13:49:59.128Z,1000.00
2018-10-09T13:50:59.148Z,1000.00
2018-10-09T13:51:59.102Z,1004.00
2018-10-09T13:52:59.099Z,1000.00
2018-10-09T13:53:59.359Z,1004.00
2018-10-09T13:54:59.112Z,1004.00
2018-10-09T13:55:59.073Z,1016.00
2018-10-09T13:56:59.045Z,1028.00
2018-10-09T13:57:59.037Z,1032.00
2018-10-09T13:58:59.026Z,1032.00
2018-10-09T13:59:59.000Z,1036.00
2018-10-09T14:00:59.021Z,1032.00
2018-10-09T14:01:59.092Z,1032.00
2018-10-09T14:02:58.995Z,1032.00
2018-10-09T14:03:58.966Z,1032.00
2018-10-09T14:04:58.954Z,1032.00
2018-10-09T14:05:58.950Z,1028.00
2018-10-09T14:06:58.945Z,1020.00
2018-10-09T14:07:58.921Z,1004.00
2018-10-09T14:08:58.909Z,992.00
2018-10-09T14:09:58.952Z,972.00
2018-10-09T14:10:59.015Z,964.00
2018-10-09T14:11:58.897Z,968.00
2018-10-09T14:12:58.864Z,964.00
2018-10-09T14:13:58.853Z,964.00
2018-10-09T14:14:59.045Z,968.00
2018-10-09T14:15:58.843Z,972.00
2018-10-09T14:16:58.827Z,976.00
2018-10-09T14:17:58.809Z,984.00
2018-10-09T14:18:58.797Z,992.00
2018-10-09T14:19:58.786Z,996.00
2018-10-09T14:20:58.779Z,1000.00
2018-10-09T14:21:58.770Z,996.00
2018-10-09T14:22:58.809Z,992.00
2018-10-09T14:23:58.741Z,992.00
2018-10-09T14:24:58.729Z,980.00
2018-10-09T14:25:58.718Z,976.00
2018-10-09T14:26:58.719Z,964.00
2018-10-09T14:27:58.695Z,964.00
2018-10-09T14:28:58.684Z,952.00
2018-10-09T14:29:58.672Z,952.00
2018-10-09T14:30:58.662Z,940.00
2018-10-09T14:31:58.658Z,936.00
2018-10-09T14:32:58.641Z,924.00
2018-10-09T14:33:58.627Z,916.00
2018-10-09T14:34:58.683Z,912.00
2018-10-09T14:35:58.608Z,908.00
2018-10-09T14:36:58.602Z,904.00
2018-10-09T14:37:58.603Z,896.00
2018-10-09T14:38:58.571Z,896.00
2018-10-09T14:39:58.560Z,892.00
2018-10-09T14:40:58.545Z,896.00
2018-10-09T14:41:58.546Z,888.00
2018-10-09T14:42:58.523Z,892.00
2018-10-09T14:43:58.524Z,884.00
2018-10-09T14:44:58.504Z,876.00
2018-10-09T14:45:58.491Z,868.00
2018-10-09T14:46:58.482Z,872.00
2018-10-09T14:47:58.466Z,868.00
2018-10-09T14:48:58.448Z,868.00
2018-10-09T14:49:58.445Z,876.00
2018-10-09T14:50:58.433Z,880.00
2018-10-09T14:51:58.438Z,884.00
2018-10-09T14:52:58.409Z,880.00
2018-10-09T14:53:58.399Z,880.00
2018-10-09T14:54:58.388Z,868.00
2018-10-09T14:55:58.380Z,856.00
2018-10-09T14:56:58.377Z,860.00
2018-10-09T14:57:58.353Z,844.00
2018-10-09T14:58:58.346Z,844.00
2018-10-09T14:59:58.330Z,816.00
2018-10-09T15:00:58.323Z,796.00
2018-10-09T15:01:58.319Z,772.00
2018-10-09T15:02:58.300Z,756.00
2018-10-09T15:03:58.289Z,744.00
2018-10-09T15:04:58.274Z,740.00
2018-10-09T15:05:58.263Z,736.00
2018-10-09T15:06:58.264Z,724.00
2018-10-09T15:07:58.240Z,712.00
2018-10-09T15:08:58.229Z,708.00
2018-10-09T15:09:58.218Z,696.00
2018-10-09T15:10:58.207Z,692.00
2018-10-09T15:11:58.207Z,692.00
2018-10-09T15:12:58.184Z,692.00
2018-10-09T15:13:58.179Z,684.00
2018-10-09T15:14:58.161Z,684.00
2018-10-09T15:15:58.150Z,660.00
2018-10-09T15:16:58.264Z,652.00
2018-10-09T15:17:58.127Z,636.00
2018-10-09T15:18:58.120Z,620.00
2018-10-09T15:19:58.105Z,608.00
2018-10-09T15:20:58.096Z,596.00
2018-10-09T15:21:58.095Z,584.00
2018-10-09T15:22:58.071Z,576.00
2018-10-09T15:23:58.060Z,576.00
2018-10-09T15:24:58.049Z,556.00
2018-10-09T15:25:58.040Z,544.00
2018-10-09T15:26:58.042Z,540.00
2018-10-09T15:27:58.016Z,532.00
2018-10-09T15:28:58.010Z,524.00
2018-10-09T15:29:57.996Z,524.00
2018-10-09T15:30:57.985Z,508.00
2018-10-09T15:31:57.983Z,492.00
2018-10-09T15:32:57.958Z,484.00
2018-10-09T15:33:57.947Z,484.00
2018-10-09T15:34:57.936Z,472.00
2018-10-09T15:35:57.924Z,468.00
2018-10-09T15:36:57.925Z,464.00
2018-10-09T15:37:57.890Z,448.00
2018-10-09T15:38:57.895Z,444.00
2018-10-09T15:39:57.880Z,432.00
2018-10-09T15:40:57.890Z,428.00
2018-10-09T15:41:57.872Z,424.00
2018-10-09T15:42:57.851Z,424.00
2018-10-09T15:43:57.839Z,416.00
2018-10-09T15:44:57.827Z,396.00
2018-10-09T15:45:57.870Z,388.00
2018-10-09T15:46:57.817Z,376.00
2018-10-09T15:47:57.791Z,356.00
2018-10-09T15:48:57.778Z,348.00
2018-10-09T15:49:57.840Z,324.00
2018-10-09T15:50:57.763Z,312.00
2018-10-09T15:51:57.874Z,296.00
2018-10-09T15:52:57.741Z,288.00
2018-10-09T15:53:57.735Z,268.00
2018-10-09T15:54:57.717Z,260.00
2018-10-09T15:55:57.720Z,244.00
2018-10-09T15:56:57.714Z,240.00
2018-10-09T15:57:57.681Z,232.00
2018-10-09T15:58:57.670Z,228.00
2018-10-09T15:59:57.658Z,220.00
2018-10-09T16:00:57.682Z,212.00
2018-10-09T16:01:57.648Z,212.00
2018-10-09T16:02:57.624Z,200.00
2018-10-09T16:03:57.681Z,196.00
2018-10-09T16:04:57.606Z,196.00
2018-10-09T16:05:57.591Z,188.00
2018-10-09T16:06:57.637Z,180.00
2018-10-09T16:07:57.575Z,176.00
2018-10-09T16:08:57.561Z,172.00
2018-10-09T16:09:57.546Z,160.00
2018-10-09T16:10:57.534Z,160.00